Vigan, Philippines

1:05 PM PHT on July 27, 2016 (GMT +0800)
Masintoc | | Change Station

Elev 20 ft 18.08 °N, 120.49 °E | Updated 21 seconds ago

Scattered Clouds
Scattered Clouds
91.9 °F
Feels Like 107 °F
N
3.4
Wind Variable Wind from North
Gusts 4.9 mph

Today
High -- | Low -- °F
--% Chance of Precip.
Yesterday
High -- | Low -- °F
Precip. -- in
Pressure 29.80 in
Visibility 6.2 miles
Clouds Few 1900 ft
Scattered Clouds 29000 ft
Heat Index 107 °F
Dew Point 78 °F
Humidity 64%
Rainfall 0.00 in
Snow Depth Not available.
5:35 AM 6:34 PM
Waning Gibbous, 47% visible
METAR RPLI 270400Z 32006KT 9999 FEW019TCU SCT290 32/24 Q1009 NOSIG RMK A2980 TCU NE
Pressure 29.80 in
Visibility 6.2 miles
Clouds Few 1900 ft
Scattered Clouds 29000 ft
Heat Index 107 °F
Dew Point 78 °F
Humidity 64%
Rainfall 0.00 in
Snow Depth Not available.
5:35 AM 6:34 PM
Waning Gibbous, 47% visible
METAR RPLI 270400Z 32006KT 9999 FEW019TCU SCT290 32/24 Q1009 NOSIG RMK A2980 TCU NE

10-Day Weather Forecast

No radar image for this location.
×

Almanac

Astronomy

Jul. 27, 2016 Rise Set
Actual Time
Civil Twilight
Nautical Twilight
Astronomical Twilight
Moon
Length of Visible Light
Length of Day
Tomorrow will be .
, % of the Moon is Illuminated

Today's Extremes

Country Highs Country Lows

Community

WunderPhotos

Upload Photos

1,927,814 photos uploaded!

WunderBlog® & News

Nearby

Air Quality

  Air Quality AQ Index Pollutant
Not available.

Snow Depth

Station Depth Elevation

Earthquake Activity

City Distance Mag. Time & Date
Minimum magnitude displayed is 2.5.

Coastal Water Temperatures

Place Temperature

Stations

Nearby Weather Stations

Station Location Temp. Windchill Dew Point Humidity Wind Precip. Elev Updated Type